Newcastle, WY

10:09 PM MDT on May 21, 2018 (GMT -0600)
Mondell

Weather History for KECS - April, 2014

Change the Weather History Date:

Monday, April 28, 2014

  Actual Average (WUND) Record (WUND)
Temperature  
Mean Temperature 40 °F -  
Max Temperature 44 °F - - (-1)
Min Temperature 35 °F - - (-1)
Degree Days  
Heating Degree Days 26    
Moisture  
Dew Point 31 °F    
Average Humidity 75    
Maximum Humidity 93    
Minimum Humidity 53    
Precipitation  
Precipitation 0.01 in - - ()
Sea Level Pressure  
Sea Level Pressure 29.71 in    
Wind  
Wind Speed 22 mph (NW)    
Max Wind Speed 40 mph    
Max Gust Speed 52 mph    
Visibility 10 miles    
Events Rain    
Averages and records for this station are not official NWS values.
T = Trace of Precipitation, MM = Missing Value Source: NWS Daily Summary

Daily Weather History Graph

Daily Weather History Graph

Search for Another Location

Airport or City:

Astronomy

Apr. 28, 2014 Rise Set
Actual Time 5:53 AM MDT 7:56 PM MDT
Civil Twilight 5:22 AM MDT 8:28 PM MDT
Nautical Twilight 4:43 AM MDT 9:06 PM MDT
Astronomical Twilight 4:01 AM MDT 9:49 PM MDT
Moon 5:35 AM MDT (4/28) 7:36 PM MDT (4/28)
Length of Visible Light 15h 06m
Length of Day
14h 03m
Waning Crescent, 0% of the Moon is Illuminated
Apr 28
Waning Crescent
Apr 29
New
May 6
First Quarter
May 14
Full
May 21
Last Quarter

Hourly Weather History & Observations

Time (MDT) Temp. Windchill Dew Point Humidity Pressure Visibility Wind Dir Wind Speed Gust Speed Precip Events Conditions
12:15 AM 35.6 °F 27.1 °F 32.0 °F 87% 29.56 in 10.0 mi NNW 12.7 mph 19.6 mph N/A   Light Drizzle
12:35 AM 37.4 °F 30.3 °F 32.0 °F 81% 29.58 in 10.0 mi North 10.4 mph - N/A   Scattered Clouds
12:55 AM 37.4 °F 26.9 °F 30.2 °F 75% 29.58 in 10.0 mi NNW 20.7 mph 26.5 mph N/A   Scattered Clouds
1:15 AM 35.6 °F 26.2 °F 30.2 °F 81% 29.57 in 10.0 mi NNW 15.0 mph 25.3 mph N/A   Clear
1:35 AM 35.6 °F 26.6 °F 30.2 °F 81% 29.56 in 10.0 mi NW 13.8 mph 21.9 mph N/A   Clear
1:55 AM 35.6 °F 26.2 °F 32.0 °F 87% 29.56 in 10.0 mi NW 15.0 mph 19.6 mph N/A   Clear
2:15 AM 35.6 °F 25.2 °F 32.0 °F 87% 29.56 in 10.0 mi NW 18.4 mph 24.2 mph N/A   Clear
2:35 AM 35.6 °F 24.8 °F 32.0 °F 87% 29.56 in 10.0 mi NW 19.6 mph 27.6 mph N/A   Clear
2:55 AM 35.6 °F 24.8 °F 32.0 °F 87% 29.57 in 10.0 mi NW 19.6 mph 31.1 mph N/A   Clear
3:15 AM 35.6 °F 24.5 °F 32.0 °F 87% 29.57 in 10.0 mi NW 20.7 mph - N/A   Clear
3:35 AM 35.6 °F 24.0 °F 32.0 °F 87% 29.56 in 10.0 mi NW 23.0 mph 28.8 mph N/A   Clear
3:55 AM 35.6 °F 24.2 °F 32.0 °F 87% 29.57 in 10.0 mi NW 21.9 mph 28.8 mph N/A   Clear
4:15 AM 35.6 °F 24.8 °F 32.0 °F 87% 29.58 in 10.0 mi NW 19.6 mph 26.5 mph N/A   Clear
4:35 AM 35.6 °F 25.9 °F 32.0 °F 87% 29.59 in 10.0 mi NW 16.1 mph 24.2 mph N/A   Clear
4:55 AM 35.6 °F 25.9 °F 32.0 °F 87% 29.60 in 10.0 mi NW 16.1 mph 23.0 mph N/A   Clear
5:15 AM 35.6 °F 26.2 °F 32.0 °F 87% 29.61 in 10.0 mi NW 15.0 mph 21.9 mph N/A   Clear
5:35 AM 35.6 °F 25.5 °F 32.0 °F 87% 29.62 in 10.0 mi NW 17.3 mph - N/A   Clear
5:55 AM 35.6 °F 24.8 °F 32.0 °F 87% 29.62 in 10.0 mi NW 19.6 mph - N/A   Clear
6:15 AM 35.6 °F 25.5 °F 32.0 °F 87% 29.62 in 10.0 mi NW 17.3 mph 24.2 mph N/A   Clear
6:35 AM 35.6 °F 25.2 °F 32.0 °F 87% 29.62 in 10.0 mi NW 18.4 mph 25.3 mph N/A   Clear
6:55 AM 35.6 °F 25.2 °F 32.0 °F 87% 29.63 in 10.0 mi NW 18.4 mph 21.9 mph N/A   Clear
7:15 AM 35.6 °F 25.2 °F 32.0 °F 87% 29.64 in 10.0 mi NW 18.4 mph - N/A   Clear
7:35 AM 35.6 °F 25.5 °F 32.0 °F 87% 29.64 in 10.0 mi NW 17.3 mph - N/A   Clear
7:55 AM 35.6 °F 24.5 °F 32.0 °F 87% 29.64 in 10.0 mi NW 20.7 mph 26.5 mph N/A   Clear
8:15 AM 37.4 °F 26.6 °F 32.0 °F 81% 29.63 in 10.0 mi NW 21.9 mph 31.1 mph N/A   Clear
8:55 AM 37.4 °F 25.2 °F 32.0 °F 81% 29.64 in 10.0 mi NW 28.8 mph 36.8 mph N/A   Clear
9:15 AM 39.2 °F 27.4 °F 32.0 °F 75% 29.64 in 10.0 mi NNW 29.9 mph 38.0 mph N/A   Clear
9:35 AM 41.0 °F 30.5 °F 32.0 °F 70% 29.64 in 10.0 mi NNW 26.5 mph 39.1 mph N/A   Scattered Clouds
9:55 AM 41.0 °F 30.0 °F 30.2 °F 65% 29.65 in 10.0 mi NNW 28.8 mph 43.7 mph N/A   Mostly Cloudy
10:15 AM 41.0 °F 28.8 °F 30.2 °F 65% 29.65 in 10.0 mi NW 36.8 mph 44.9 mph N/A   Mostly Cloudy
10:35 AM 41.0 °F 29.5 °F 30.2 °F 65% 29.66 in 10.0 mi NNW 32.2 mph 44.9 mph N/A   Scattered Clouds
10:55 AM 41.0 °F 28.8 °F 30.2 °F 65% 29.67 in 10.0 mi NNW 36.8 mph 43.7 mph N/A   Scattered Clouds
11:15 AM 42.8 °F 31.8 °F 30.2 °F 61% 29.67 in 10.0 mi NNW 33.4 mph 44.9 mph N/A   Scattered Clouds
11:35 AM 42.8 °F 32.3 °F 30.2 °F 61% 29.67 in 10.0 mi NW 29.9 mph 46.0 mph N/A   Scattered Clouds
11:55 AM 42.8 °F 32.5 °F 30.2 °F 61% 29.68 in 10.0 mi NW 28.8 mph 49.5 mph N/A   Scattered Clouds
12:15 PM 44.6 °F 33.5 °F 28.4 °F 53% 29.68 in 10.0 mi NW 39.1 mph 51.8 mph N/A   Scattered Clouds
12:35 PM 44.6 °F 34.4 °F 28.4 °F 53% 29.69 in 10.0 mi NNW 32.2 mph 44.9 mph N/A   Scattered Clouds
12:55 PM 42.8 °F 32.1 °F 28.4 °F 57% 29.69 in 10.0 mi NNW 31.1 mph 49.5 mph N/A   Scattered Clouds
1:15 PM 42.8 °F 31.8 °F 30.2 °F 61% 29.70 in 10.0 mi NNW 33.4 mph 43.7 mph N/A   Scattered Clouds
1:55 PM 42.8 °F 31.4 °F 30.2 °F 61% 29.73 in 10.0 mi NNW 35.7 mph 42.6 mph N/A   Clear
2:35 PM 37.4 °F 25.2 °F 33.8 °F 87% 29.76 in 7.0 mi NW 28.8 mph 35.7 mph N/A Rain Light Rain
3:15 PM 35.6 °F 23.7 °F 33.8 °F 93% 29.77 in 5.0 mi NW 24.2 mph 34.5 mph N/A Rain Rain
3:35 PM 37.4 °F 25.9 °F 35.6 °F 93% 29.77 in 5.0 mi NW 25.3 mph 33.4 mph N/A Rain Rain
3:55 PM 37.4 °F 26.4 °F 35.6 °F 93% 29.78 in 7.0 mi NW 23.0 mph 32.2 mph 0.01 in Rain Rain
4:15 PM 39.2 °F 29.6 °F 33.8 °F 81% 29.77 in 10.0 mi NW 19.6 mph 28.8 mph N/A   Scattered Clouds
4:35 PM 37.4 °F 26.1 °F 33.8 °F 87% 29.79 in 7.0 mi North 24.2 mph 36.8 mph N/A Rain Light Rain
4:55 PM 39.2 °F 27.8 °F 32.0 °F 75% 29.78 in 10.0 mi NNW 27.6 mph 35.7 mph N/A   Scattered Clouds
5:16 PM 39.2 °F 27.2 °F 32.0 °F 75% 29.79 in 10.0 mi NNW 31.1 mph 42.6 mph N/A   Drizzle
5:35 PM 41.0 °F 30.0 °F 32.0 °F 70% 29.79 in 10.0 mi NW 28.8 mph 38.0 mph N/A   Scattered Clouds
5:55 PM 41.0 °F 28.3 °F 32.0 °F 70% 29.80 in 7.0 mi NNW 40.3 mph 46.0 mph N/A Rain Light Rain
6:15 PM 41.0 °F 30.2 °F 32.0 °F 70% 29.80 in 10.0 mi NW 27.6 mph 40.3 mph N/A   Scattered Clouds
6:35 PM 42.8 °F 33.1 °F 32.0 °F 66% 29.80 in 10.0 mi NNW 25.3 mph 34.5 mph N/A   Clear
6:55 PM 42.8 °F 32.5 °F 28.4 °F 57% 29.81 in 10.0 mi NNW 28.8 mph 41.4 mph N/A   Clear
7:15 PM 42.8 °F 32.9 °F 28.4 °F 57% 29.82 in 10.0 mi NNW 26.5 mph 38.0 mph N/A   Clear
7:35 PM 42.8 °F 33.3 °F 28.4 °F 57% 29.83 in 10.0 mi NNW 24.2 mph 33.4 mph N/A   Clear
7:55 PM 42.8 °F 32.7 °F 28.4 °F 57% 29.84 in 10.0 mi NNW 27.6 mph 34.5 mph N/A   Clear
8:15 PM 42.8 °F 32.3 °F 28.4 °F 57% 29.84 in 10.0 mi NNW 29.9 mph 39.1 mph N/A   Clear
8:35 PM 41.0 °F 30.5 °F 28.4 °F 61% 29.85 in 10.0 mi NNW 26.5 mph 40.3 mph N/A   Clear
8:55 PM 41.0 °F 30.0 °F 28.4 °F 61% 29.86 in 10.0 mi NNW 28.8 mph 46.0 mph N/A   Clear
9:15 PM 41.0 °F 29.7 °F 28.4 °F 61% 29.87 in 10.0 mi NNW 31.1 mph 42.6 mph N/A   Clear
9:35 PM 41.0 °F 28.6 °F 28.4 °F 61% 29.88 in 10.0 mi NNW 38.0 mph 50.6 mph N/A   Clear
9:55 PM 39.2 °F 27.0 °F 28.4 °F 65% 29.89 in 10.0 mi NNW 32.2 mph 49.5 mph N/A   Clear
10:15 PM 37.4 °F 25.2 °F 28.4 °F 70% 29.89 in 10.0 mi NNW 28.8 mph 44.9 mph N/A   Clear
10:35 PM 37.4 °F 24.8 °F 28.4 °F 70% 29.89 in 10.0 mi NNW 31.1 mph 48.3 mph N/A   Clear
10:55 PM 37.4 °F 25.0 °F 28.4 °F 70% 29.90 in 10.0 mi NW 29.9 mph 41.4 mph N/A   Clear
11:15 PM 37.4 °F 25.9 °F 30.2 °F 75% 29.91 in 10.0 mi NNW 25.3 mph 35.7 mph N/A   Scattered Clouds
11:35 PM 37.4 °F 25.6 °F 30.2 °F 75% 29.91 in 10.0 mi NW 26.5 mph 36.8 mph N/A   Scattered Clouds
11:55 PM 35.6 °F 25.2 °F 32.0 °F 87% 29.93 in 10.0 mi NNW 18.4 mph 36.8 mph N/A   Scattered Clouds